Time;durP1;ratioP1;P1;durP2;ratioP2;P2;SDS_P1;SDS_P2;PMS_P1;PMS_P2;Temp;Humidity;BMP_temperature;BMP_pressure;BME280_temperature;BME280_humidity;BME280_pressure;Samples;Min_cycle;Max_cycle;Signal;HPM_P1;HPM_P2
2024/03/19 00:01:48;;;;;;;25.00;14.00;;;;;;;1.83;100.00;101170.92;104582;1274;100040;-76
2024/03/19 00:04:34;;;;;;;20.80;12.60;;;;;;;1.79;100.00;101170.86;104580;1270;103966;-76
2024/03/19 00:07:19;;;;;;;21.50;13.10;;;;;;;1.76;100.00;101173.40;104516;1273;99329;-75
2024/03/19 00:10:05;;;;;;;24.00;13.10;;;;;;;1.73;100.00;101172.58;104446;1270;99454;-75
2024/03/19 00:12:50;;;;;;;23.80;12.40;;;;;;;1.71;100.00;101170.40;104524;1271;99291;-75
2024/03/19 00:15:35;;;;;;;26.20;14.00;;;;;;;1.69;100.00;101169.17;104458;1274;101123;-75
2024/03/19 00:18:22;;;;;;;22.10;12.20;;;;;;;1.66;100.00;101167.98;104438;1273;104129;-76
2024/03/19 00:21:07;;;;;;;22.50;12.60;;;;;;;1.62;100.00;101165.64;104440;1270;99674;-74
2024/03/19 00:23:52;;;;;;;25.50;14.40;;;;;;;1.57;100.00;101167.59;104433;1273;99439;-76
2024/03/19 00:26:38;;;;;;;22.10;12.80;;;;;;;1.53;100.00;101171.58;104393;1270;99366;-76
2024/03/19 00:29:23;;;;;;;22.20;13.00;;;;;;;1.50;100.00;101175.01;104371;1270;102132;-76
2024/03/19 00:32:09;;;;;;;24.30;13.50;;;;;;;1.46;100.00;101173.36;104438;1270;102755;-76
2024/03/19 00:34:54;;;;;;;25.10;13.20;;;;;;;1.45;100.00;101170.13;104419;1270;99250;-75
2024/03/19 00:37:42;;;;;;;21.70;11.90;;;;;;;1.44;100.00;101172.86;104404;1273;99841;-76
2024/03/19 00:40:27;;;;;;;22.80;12.00;;;;;;;1.43;100.00;101172.02;104497;1273;99457;-76
2024/03/19 00:43:12;;;;;;;22.90;12.90;;;;;;;1.42;100.00;101169.44;104476;1269;99873;-75
2024/03/19 00:45:59;;;;;;;22.50;12.30;;;;;;;1.40;100.00;101170.11;104481;1270;104515;-76
2024/03/19 00:48:44;;;;;;;25.80;12.80;;;;;;;1.38;100.00;101169.90;104464;1271;100325;-75
2024/03/19 00:51:29;;;;;;;21.50;12.60;;;;;;;1.36;100.00;101172.01;104375;1273;99350;-76
2024/03/19 00:54:15;;;;;;;23.20;12.40;;;;;;;1.35;100.00;101174.58;104389;1273;99844;-75
2024/03/19 00:57:00;;;;;;;23.90;12.60;;;;;;;1.34;100.00;101176.02;104513;1270;99783;-76
2024/03/19 00:59:45;;;;;;;22.80;12.50;;;;;;;1.32;100.00;101177.05;104453;1270;102741;-75
2024/03/19 01:02:31;;;;;;;23.00;13.30;;;;;;;1.29;100.00;101176.59;104438;1270;99361;-76
2024/03/19 01:05:17;;;;;;;22.30;12.20;;;;;;;1.25;100.00;101176.55;104403;1271;99381;-75
2024/03/19 01:08:02;;;;;;;20.50;12.20;;;;;;;1.20;100.00;101173.42;104389;1273;100530;-76
2024/03/19 01:10:47;;;;;;;20.90;11.40;;;;;;;1.15;100.00;101175.73;104455;1270;99561;-75
2024/03/19 01:13:33;;;;;;;19.40;12.10;;;;;;;1.11;100.00;101173.70;104456;1273;103513;-76
2024/03/19 01:16:19;;;;;;;19.40;11.20;;;;;;;1.10;100.00;101178.20;104411;1270;100417;-77
2024/03/19 01:19:04;;;;;;;22.30;12.70;;;;;;;1.09;100.00;101178.30;104548;1273;99645;-76
2024/03/19 01:21:49;;;;;;;19.70;11.60;;;;;;;1.08;100.00;101179.06;104506;1273;99374;-76
2024/03/19 01:24:35;;;;;;;23.50;12.40;;;;;;;1.06;100.00;101182.21;104529;1270;99991;-75
2024/03/19 01:27:20;;;;;;;18.10;11.20;;;;;;;1.02;100.00;101184.23;104408;1273;102729;-76
2024/03/19 01:30:07;;;;;;;20.50;10.80;;;;;;;0.98;100.00;101186.16;104230;1276;99356;-76
2024/03/19 01:32:52;;;;;;;19.60;11.40;;;;;;;0.95;100.00;101192.55;104432;1273;100945;-76
2024/03/19 01:35:37;;;;;;;21.40;11.90;;;;;;;0.91;100.00;101192.98;104400;1274;99364;-76
2024/03/19 01:38:25;;;;;;;20.90;11.10;;;;;;;0.89;100.00;101191.21;104464;1273;101034;-77
2024/03/19 01:41:14;;;;;;;21.60;11.80;;;;;;;0.86;100.00;101194.60;104464;1270;104115;-77
2024/03/19 01:44:00;;;;;;;21.90;11.80;;;;;;;0.82;100.00;101189.94;104620;1270;100221;-76
2024/03/19 01:46:46;;;;;;;19.20;12.30;;;;;;;0.79;100.00;101191.39;104401;1271;99339;-76
2024/03/19 01:49:33;;;;;;;19.00;11.10;;;;;;;0.75;100.00;101193.40;104441;1270;99405;-76
2024/03/19 01:52:18;;;;;;;21.60;11.00;;;;;;;0.72;100.00;101193.29;104469;1270;100382;-76
2024/03/19 01:55:05;;;;;;;17.20;10.70;;;;;;;0.69;100.00;101195.59;104483;1270;102794;-77
2024/03/19 01:57:52;;;;;;;18.60;11.20;;;;;;;0.68;100.00;101199.35;104485;1270;99337;-78
2024/03/19 02:00:37;;;;;;;20.30;11.70;;;;;;;0.67;100.00;101200.35;104501;1270;99372;-76
2024/03/19 02:03:22;;;;;;;19.40;11.50;;;;;;;0.64;100.00;101202.45;104424;1271;99338;-77
2024/03/19 02:06:08;;;;;;;19.40;11.00;;;;;;;0.64;100.00;101206.56;104490;1270;99884;-76
2024/03/19 02:09:05;;;;;;;19.50;11.70;;;;;;;0.62;100.00;101208.95;104537;1274;102725;-76
2024/03/19 02:11:51;;;;;;;20.10;11.10;;;;;;;0.61;100.00;101207.13;104533;1273;100666;-76
2024/03/19 02:14:36;;;;;;;21.40;11.00;;;;;;;0.60;100.00;101207.34;104511;1270;99530;-76
2024/03/19 02:17:22;;;;;;;18.20;11.70;;;;;;;0.60;100.00;101207.20;104526;1270;99331;-76
2024/03/19 02:20:12;;;;;;;20.50;11.20;;;;;;;0.59;100.00;101206.02;104518;1273;99991;-76
2024/03/19 02:22:57;;;;;;;20.60;11.00;;;;;;;0.57;100.00;101207.23;104439;1270;102734;-76
2024/03/19 02:25:43;;;;;;;19.60;11.10;;;;;;;0.55;100.00;101206.14;104366;1270;188959;-76
2024/03/19 02:28:28;;;;;;;19.70;11.50;;;;;;;0.54;100.00;101207.77;104399;1273;99426;-77
2024/03/19 02:31:14;;;;;;;18.70;11.00;;;;;;;0.53;100.00;101208.01;104581;1270;99381;-77
2024/03/19 02:33:59;;;;;;;20.50;12.10;;;;;;;0.52;100.00;101209.29;104561;1273;99261;-76
2024/03/19 02:36:45;;;;;;;18.60;11.00;;;;;;;0.52;100.00;101208.95;104578;1271;103475;-76
2024/03/19 02:39:30;;;;;;;19.60;11.60;;;;;;;0.51;100.00;101208.88;104569;1270;99307;-76
2024/03/19 02:42:16;;;;;;;21.40;12.00;;;;;;;0.49;100.00;101215.86;104577;1270;99275;-75
2024/03/19 02:45:01;;;;;;;21.20;11.60;;;;;;;0.48;100.00;101214.55;104551;1273;99348;-75
2024/03/19 02:47:47;;;;;;;23.00;11.80;;;;;;;0.47;100.00;101217.09;104624;1270;99320;-76
2024/03/19 02:50:33;;;;;;;16.40;10.70;;;;;;;0.47;100.00;101221.08;104570;1270;105149;-77
2024/03/19 02:53:20;;;;;;;21.40;11.10;;;;;;;0.47;100.00;101219.70;104500;1271;100348;-75
2024/03/19 02:56:06;;;;;;;18.10;10.70;;;;;;;0.47;100.00;101223.05;104470;1270;100524;-76
2024/03/19 02:58:51;;;;;;;22.00;12.80;;;;;;;0.46;100.00;101226.46;104519;1274;99288;-76
2024/03/19 03:01:37;;;;;;;21.10;11.20;;;;;;;0.45;100.00;101228.12;104462;1273;102992;-77
2024/03/19 03:04:22;;;;;;;20.10;11.50;;;;;;;0.42;100.00;101231.27;104453;1273;102720;-77
2024/03/19 03:07:08;;;;;;;19.50;10.40;;;;;;;0.40;100.00;101234.77;104485;1270;99590;-76
2024/03/19 03:09:53;;;;;;;20.10;11.50;;;;;;;0.39;100.00;101235.23;104493;1270;99387;-77
2024/03/19 03:12:39;;;;;;;19.30;11.70;;;;;;;0.37;100.00;101242.33;104489;1273;99343;-77
2024/03/19 03:15:24;;;;;;;18.00;12.50;;;;;;;0.36;100.00;101248.02;104545;1269;100657;-75
2024/03/19 03:18:10;;;;;;;17.20;10.40;;;;;;;0.34;100.00;101249.41;104609;1273;102707;-77
2024/03/19 03:20:55;;;;;;;19.30;11.00;;;;;;;0.31;100.00;101245.94;104526;1273;99342;-77
2024/03/19 03:23:41;;;;;;;20.00;12.30;;;;;;;0.28;100.00;101245.60;104700;1270;99330;-77
2024/03/19 03:26:27;;;;;;;19.70;11.00;;;;;;;0.27;100.00;101246.55;104597;1273;99406;-76
2024/03/19 03:29:12;;;;;;;21.50;11.90;;;;;;;0.26;100.00;101246.84;104524;1270;99349;-77
2024/03/19 03:31:57;;;;;;;20.80;11.50;;;;;;;0.22;100.00;101246.38;104522;1270;102846;-77
2024/03/19 03:34:43;;;;;;;25.50;11.40;;;;;;;0.20;100.00;101247.28;104554;1271;100144;-77
2024/03/19 03:37:29;;;;;;;18.30;10.80;;;;;;;0.17;100.00;101249.77;104649;1273;99342;-77
2024/03/19 03:40:18;;;;;;;18.10;10.90;;;;;;;0.13;100.00;101249.11;105826;1270;99393;-77
2024/03/19 03:43:03;;;;;;;18.00;10.90;;;;;;;0.10;100.00;101254.27;104521;1271;101026;-77
2024/03/19 03:45:49;;;;;;;21.70;11.00;;;;;;;0.06;100.00;101255.21;104528;1271;103899;-77
2024/03/19 03:48:34;;;;;;;19.00;10.30;;;;;;;0.04;100.00;101255.36;104628;1270;99330;-76
2024/03/19 03:51:20;;;;;;;18.10;10.50;;;;;;;0.01;100.00;101257.16;104671;1274;99369;-75
2024/03/19 03:54:05;;;;;;;17.50;9.50;;;;;;;-0.03;100.00;101260.91;104677;1270;99359;-77
2024/03/19 03:56:51;;;;;;;21.20;10.80;;;;;;;-0.06;100.00;101264.61;104764;1270;101018;-76
2024/03/19 03:59:37;;;;;;;18.20;10.30;;;;;;;-0.09;100.00;101269.95;104747;1270;102877;-77
2024/03/19 04:02:23;;;;;;;17.00;9.80;;;;;;;-0.12;100.00;101273.29;104782;1281;100129;-77
2024/03/19 04:05:09;;;;;;;17.00;9.70;;;;;;;-0.17;100.00;101274.86;104778;1271;99501;-77
2024/03/19 04:07:54;;;;;;;19.60;10.60;;;;;;;-0.22;100.00;101277.65;104716;1270;99357;-78
2024/03/19 04:10:39;;;;;;;18.00;10.30;;;;;;;-0.27;100.00;101279.93;104555;1271;99332;-75
2024/03/19 04:13:24;;;;;;;18.50;10.60;;;;;;;-0.30;100.00;101280.64;104800;1273;102723;-77
2024/03/19 04:16:09;;;;;;;20.40;10.50;;;;;;;-0.31;100.00;101282.83;104744;1269;99491;-76
2024/03/19 04:18:55;;;;;;;22.80;11.60;;;;;;;-0.33;100.00;101281.60;104466;1274;99726;-77
2024/03/19 04:21:40;;;;;;;17.00;10.60;;;;;;;-0.35;100.00;101279.94;104657;1272;99344;-76
2024/03/19 04:24:26;;;;;;;17.00;9.40;;;;;;;-0.35;100.00;101288.88;104814;1273;99728;-76
2024/03/19 04:27:12;;;;;;;19.90;11.60;;;;;;;-0.35;100.00;101288.39;104733;1273;103517;-76
2024/03/19 04:29:57;;;;;;;17.50;10.40;;;;;;;-0.35;100.00;101290.70;104682;1273;100523;-76
2024/03/19 04:32:43;;;;;;;19.40;10.80;;;;;;;-0.36;100.00;101290.88;104675;1274;99390;-76
2024/03/19 04:35:28;;;;;;;23.60;10.80;;;;;;;-0.36;100.00;101289.66;104760;1273;99362;-77
2024/03/19 04:38:14;;;;;;;18.00;10.90;;;;;;;-0.36;100.00;101283.70;104682;1273;99336;-76
2024/03/19 04:41:00;;;;;;;20.90;10.90;;;;;;;-0.36;100.00;101286.34;104695;1270;102748;-76
2024/03/19 04:43:45;;;;;;;21.20;11.70;;;;;;;-0.35;100.00;101285.57;104715;1272;99253;-76
2024/03/19 04:46:31;;;;;;;22.10;12.50;;;;;;;-0.34;100.00;101287.98;104649;1273;99335;-77
2024/03/19 04:49:17;;;;;;;21.10;11.70;;;;;;;-0.35;100.00;101287.29;104768;1268;99365;-76
2024/03/19 04:52:02;;;;;;;21.50;12.10;;;;;;;-0.36;100.00;101291.95;104599;1273;100447;-76
2024/03/19 04:54:47;;;;;;;19.10;10.20;;;;;;;-0.38;100.00;101290.01;104716;1273;104004;-77
2024/03/19 04:57:33;;;;;;;20.60;10.50;;;;;;;-0.41;100.00;101295.26;104758;1271;100122;-76
2024/03/19 05:00:18;;;;;;;20.70;11.70;;;;;;;-0.42;100.00;101300.45;104702;1270;99370;-76
2024/03/19 05:03:04;;;;;;;23.00;11.80;;;;;;;-0.44;100.00;101301.23;104541;1273;99768;-77
2024/03/19 05:05:49;;;;;;;20.60;11.00;;;;;;;-0.43;100.00;101306.45;104589;1273;101080;-77
2024/03/19 05:08:39;;;;;;;21.90;11.70;;;;;;;-0.44;100.00;101314.20;104574;1271;103542;-77
2024/03/19 05:11:24;;;;;;;21.80;11.90;;;;;;;-0.43;100.00;101317.16;104856;1271;100430;-77
2024/03/19 05:14:10;;;;;;;22.50;11.00;;;;;;;-0.43;100.00;101321.52;104711;1273;99162;-76
2024/03/19 05:16:55;;;;;;;22.90;11.80;;;;;;;-0.43;100.00;101323.98;104682;1270;99451;-77
2024/03/19 05:19:40;;;;;;;19.90;11.60;;;;;;;-0.44;100.00;101327.04;104692;1270;99255;-76
2024/03/19 05:22:26;;;;;;;22.10;12.10;;;;;;;-0.45;100.00;101328.48;104522;1273;102818;-77
2024/03/19 05:25:11;;;;;;;20.90;11.00;;;;;;;-0.43;100.00;101329.80;104617;1273;100411;-77
2024/03/19 05:27:57;;;;;;;21.70;12.00;;;;;;;-0.43;100.00;101331.21;104546;1270;99353;-77
2024/03/19 05:30:43;;;;;;;20.40;11.10;;;;;;;-0.42;100.00;101332.90;104568;1272;99368;-76
2024/03/19 05:33:29;;;;;;;21.90;11.50;;;;;;;-0.40;100.00;101335.55;104666;1273;99351;-76
2024/03/19 05:36:14;;;;;;;22.60;12.30;;;;;;;-0.38;100.00;101332.25;104583;1271;103422;-77
2024/03/19 05:39:00;;;;;;;20.30;11.70;;;;;;;-0.35;100.00;101336.27;104605;1274;100419;-76
2024/03/19 05:41:45;;;;;;;23.00;11.70;;;;;;;-0.31;100.00;101340.39;104648;1271;99470;-76
2024/03/19 05:44:31;;;;;;;20.40;10.90;;;;;;;-0.29;100.00;101337.99;104577;1271;99296;-76
2024/03/19 05:47:16;;;;;;;23.10;12.10;;;;;;;-0.26;100.00;101342.15;104612;1271;100007;-77
2024/03/19 05:50:05;;;;;;;20.00;12.30;;;;;;;-0.22;100.00;101340.66;104614;1271;102855;-77
2024/03/19 05:52:50;;;;;;;26.10;12.80;;;;;;;-0.19;100.00;101343.43;104584;1271;99387;-76
2024/03/19 05:55:35;;;;;;;26.40;13.20;;;;;;;-0.16;100.00;101347.98;104502;1270;99455;-76
2024/03/19 05:58:21;;;;;;;23.50;12.30;;;;;;;-0.14;100.00;101348.91;104632;1273;99351;-78
2024/03/19 06:01:06;;;;;;;21.40;12.70;;;;;;;-0.11;100.00;101352.58;104561;1273;99212;-76
2024/03/19 06:03:51;;;;;;;21.90;12.90;;;;;;;-0.08;100.00;101356.59;104615;1271;102697;-76
2024/03/19 06:06:37;;;;;;;23.40;11.50;;;;;;;-0.04;100.00;101354.05;104606;1273;99371;-76
2024/03/19 06:09:22;;;;;;;22.50;11.50;;;;;;;-0.00;100.00;101356.10;104564;1273;99263;-77
2024/03/19 06:12:07;;;;;;;20.10;11.30;;;;;;;0.05;100.00;101357.86;104657;1270;99403;-77
2024/03/19 06:14:53;;;;;;;22.40;11.70;;;;;;;0.09;100.00;101356.73;104580;1273;100954;-77
2024/03/19 06:17:38;;;;;;;24.40;11.90;;;;;;;0.12;100.00;101356.67;104647;1271;104001;-77
2024/03/19 06:20:23;;;;;;;20.80;11.60;;;;;;;0.17;100.00;101358.46;104632;1271;99807;-78
2024/03/19 06:23:09;;;;;;;20.20;11.90;;;;;;;0.22;100.00;101359.15;104590;1271;99355;-77
2024/03/19 06:25:54;;;;;;;21.40;12.30;;;;;;;0.27;100.00;101356.70;104542;1270;99470;-77
2024/03/19 06:28:40;;;;;;;26.90;14.20;;;;;;;0.31;100.00;101358.20;104450;1273;99883;-76
2024/03/19 06:31:25;;;;;;;25.60;13.00;;;;;;;0.35;100.00;101358.41;104540;1273;102805;-77
2024/03/19 06:34:11;;;;;;;19.20;11.10;;;;;;;0.41;100.00;101363.10;104644;1273;100421;-78
2024/03/19 06:36:56;;;;;;;21.60;12.20;;;;;;;0.48;100.00;101367.39;104598;1273;100077;-76
2024/03/19 06:39:42;;;;;;;26.60;13.50;;;;;;;0.54;100.00;101363.98;104607;1271;99355;-76
2024/03/19 06:42:27;;;;;;;24.80;13.10;;;;;;;0.60;100.00;101369.88;104635;1271;99892;-77
2024/03/19 06:45:13;;;;;;;19.60;11.90;;;;;;;0.68;100.00;101370.19;104668;1273;103989;-77
2024/03/19 06:47:58;;;;;;;21.60;12.00;;;;;;;0.75;100.00;101369.91;104539;1271;100971;-76
2024/03/19 06:50:45;;;;;;;23.10;12.70;;;;;;;0.82;100.00;101376.83;104628;1273;99372;-79
2024/03/19 06:53:31;;;;;;;27.20;14.40;;;;;;;0.82;100.00;101381.21;104461;1270;99263;-76
2024/03/19 06:56:16;;;;;;;24.50;13.80;;;;;;;0.78;100.00;101380.58;104629;1273;99339;-77
2024/03/19 06:59:02;;;;;;;21.70;13.10;;;;;;;0.76;100.00;101378.82;104715;1271;102738;-78
2024/03/19 07:01:47;;;;;;;22.90;14.00;;;;;;;0.75;100.00;101378.02;104591;1273;99937;-77
2024/03/19 07:04:34;;;;;;;25.10;13.90;;;;;;;0.76;100.00;101378.95;104463;1274;99361;-76
2024/03/19 07:07:23;;;;;;;25.60;13.80;;;;;;;0.76;100.00;101380.00;104476;1273;99444;-76
2024/03/19 07:10:13;;;;;;;25.40;13.80;;;;;;;0.75;100.00;101385.19;104463;1272;99371;-76
2024/03/19 07:12:58;;;;;;;23.80;13.40;;;;;;;0.77;100.00;101387.14;104476;1273;102725;-77
2024/03/19 07:15:44;;;;;;;23.50;13.60;;;;;;;0.84;100.00;101393.06;104445;1271;100382;-77
2024/03/19 07:18:29;;;;;;;22.20;12.70;;;;;;;0.87;100.00;101397.20;104402;1273;99396;-76
2024/03/19 07:21:15;;;;;;;23.40;13.10;;;;;;;0.89;100.00;101398.50;104485;1271;100764;-77
2024/03/19 07:24:00;;;;;;;21.40;11.60;;;;;;;0.91;100.00;101398.88;104494;1273;99314;-75
2024/03/19 07:26:46;;;;;;;24.10;13.60;;;;;;;0.93;100.00;101400.15;104565;1271;103468;-76
2024/03/19 07:29:31;;;;;;;25.20;14.20;;;;;;;0.93;100.00;101402.07;104448;1271;99243;-75
2024/03/19 07:32:16;;;;;;;22.80;12.40;;;;;;;0.95;100.00;101404.24;104382;1273;99361;-75
2024/03/19 07:35:04;;;;;;;26.00;13.80;;;;;;;0.98;100.00;101402.05;104496;1271;99269;-75
2024/03/19 07:37:50;;;;;;;23.60;13.40;;;;;;;1.03;100.00;101404.56;104428;1271;99340;-75
2024/03/19 07:40:35;;;;;;;24.80;14.80;;;;;;;1.07;100.00;101407.42;104543;1271;104030;-75
2024/03/19 07:43:21;;;;;;;23.90;13.10;;;;;;;1.10;100.00;101412.26;104549;1273;99304;-76
2024/03/19 07:46:06;;;;;;;24.80;14.00;;;;;;;1.16;100.00;101414.89;104428;1270;99339;-75
2024/03/19 07:48:51;;;;;;;22.60;13.30;;;;;;;1.23;100.00;101421.61;104675;1272;99720;-77
2024/03/19 07:51:36;;;;;;;24.90;14.10;;;;;;;1.29;100.00;101422.19;106257;1271;99008;-76
2024/03/19 07:54:27;;;;;;;24.30;14.20;;;;;;;1.41;100.00;101422.40;104419;1273;105142;-76
2024/03/19 07:57:13;;;;;;;22.10;13.90;;;;;;;1.51;100.00;101429.63;104425;1271;99344;-76
2024/03/19 08:00:09;;;;;;;20.70;12.80;;;;;;;1.53;100.00;101426.78;104325;1276;100715;-76
2024/03/19 08:02:54;;;;;;;22.30;13.90;;;;;;;1.59;100.00;101429.55;104384;1274;100639;-76
2024/03/19 08:05:39;;;;;;;22.40;13.80;;;;;;;1.67;100.00;101431.98;104425;1273;99256;-76
2024/03/19 08:08:25;;;;;;;22.80;13.70;;;;;;;1.75;100.00;101431.42;104594;1271;104295;-77
2024/03/19 08:11:10;;;;;;;22.60;14.30;;;;;;;1.78;100.00;101430.98;104648;1273;99426;-77
2024/03/19 08:13:55;;;;;;;23.70;13.50;;;;;;;1.84;100.00;101434.75;104491;1273;99336;-76
2024/03/19 08:16:41;;;;;;;21.90;12.70;;;;;;;1.94;100.00;101438.10;104481;1270;99326;-76
2024/03/19 08:19:27;;;;;;;20.60;13.20;;;;;;;2.02;100.00;101438.87;104582;1273;98116;-75
2024/03/19 08:22:12;;;;;;;23.90;13.60;;;;;;;2.14;100.00;101440.81;104573;1273;103827;-76
2024/03/19 08:24:58;;;;;;;25.80;14.70;;;;;;;2.25;100.00;101437.56;104551;1271;100072;-76
2024/03/19 08:27:43;;;;;;;23.30;14.90;;;;;;;2.35;100.00;101438.74;104673;1271;99845;-76
2024/03/19 08:30:29;;;;;;;24.80;13.20;;;;;;;2.43;100.00;101438.88;104642;1270;99476;-75
2024/03/19 08:33:14;;;;;;;23.80;13.70;;;;;;;2.51;100.00;101440.54;104610;1273;99377;-76
2024/03/19 08:36:00;;;;;;;23.90;13.10;;;;;;;2.59;100.00;101434.47;104444;1273;102732;-75
2024/03/19 08:38:45;;;;;;;22.90;13.20;;;;;;;2.69;100.00;101434.61;104618;1273;99799;-76
2024/03/19 08:41:31;;;;;;;24.30;14.40;;;;;;;2.79;100.00;101432.02;104520;1270;100947;-75
2024/03/19 08:44:16;;;;;;;23.10;14.00;;;;;;;2.90;100.00;101432.40;104505;1271;99332;-76
2024/03/19 08:47:02;;;;;;;23.90;14.20;;;;;;;2.97;100.00;101434.16;104597;1271;99846;-76
2024/03/19 08:49:47;;;;;;;24.30;14.30;;;;;;;3.04;100.00;101433.41;104443;1273;103977;-73
2024/03/19 08:52:34;;;;;;;21.80;12.90;;;;;;;3.11;100.00;101431.84;104504;1271;100470;-75
2024/03/19 08:55:20;;;;;;;21.00;13.50;;;;;;;3.14;100.00;101430.88;104469;1271;100720;-76
2024/03/19 08:58:05;;;;;;;20.90;12.80;;;;;;;3.21;100.00;101430.18;104662;1273;99336;-76
2024/03/19 09:00:51;;;;;;;22.40;13.20;;;;;;;3.26;100.00;101432.58;104640;1271;100741;-76
2024/03/19 09:03:37;;;;;;;24.10;14.40;;;;;;;3.33;100.00;101435.38;104539;1271;102721;-76
2024/03/19 09:06:22;;;;;;;19.50;12.30;;;;;;;3.41;100.00;101436.73;104575;1273;99387;-76
2024/03/19 09:09:08;;;;;;;22.00;13.50;;;;;;;3.47;100.00;101431.78;104607;1270;100505;-75
2024/03/19 09:11:53;;;;;;;19.10;12.40;;;;;;;3.54;100.00;101430.52;104457;1274;99489;-76
2024/03/19 09:14:39;;;;;;;21.10;12.70;;;;;;;3.60;100.00;101433.62;104562;1271;99823;-75
2024/03/19 09:17:24;;;;;;;18.80;12.00;;;;;;;3.65;100.00;101434.42;105309;1271;102929;-82
2024/03/19 09:20:12;;;;;;;18.80;11.60;;;;;;;3.69;100.00;101431.64;105401;1271;100417;-78
2024/03/19 09:22:57;;;;;;;18.00;11.60;;;;;;;3.74;100.00;101428.73;104684;1273;99332;-82
2024/03/19 09:25:43;;;;;;;17.90;11.20;;;;;;;3.74;100.00;101430.48;105226;1276;99292;-80
2024/03/19 09:28:31;;;;;;;18.50;11.40;;;;;;;3.76;100.00;101431.57;105389;1270;99395;-80
2024/03/19 09:31:16;;;;;;;15.40;10.60;;;;;;;3.77;100.00;101432.54;105143;1272;103969;-81
2024/03/19 09:34:03;;;;;;;16.00;10.20;;;;;;;3.81;100.00;101430.41;104871;1270;99298;-80
2024/03/19 09:36:48;;;;;;;15.10;9.40;;;;;;;3.91;100.00;101428.25;105464;1273;99485;-83
2024/03/19 09:39:34;;;;;;;16.50;9.70;;;;;;;3.96;100.00;101427.52;105198;1271;99354;-85
2024/03/19 09:42:24;;;;;;;16.30;10.00;;;;;;;3.97;100.00;101430.05;105247;1271;99380;-78
2024/03/19 09:45:27;;;;;;;13.20;8.70;;;;;;;4.07;100.00;101428.73;105594;1271;102719;-79
2024/03/19 09:48:14;;;;;;;12.00;7.80;;;;;;;4.18;100.00;101427.42;105790;1269;99911;-81
2024/03/19 09:51:00;;;;;;;13.00;7.70;;;;;;;4.21;100.00;101426.09;105320;1271;99377;-82
2024/03/19 09:53:47;;;;;;;13.30;8.30;;;;;;;4.23;100.00;101424.93;105360;1270;99297;-80
2024/03/19 09:56:33;;;;;;;13.60;9.00;;;;;;;4.23;100.00;101423.16;105609;1276;99447;-88
2024/03/19 09:59:20;;;;;;;13.30;8.30;;;;;;;4.25;100.00;101425.58;105473;1270;103501;-87
2024/03/19 10:02:20;;;;;;;10.60;7.90;;;;;;;4.38;100.00;101426.95;105347;1277;100365;-78
2024/03/19 10:05:12;;;;;;;9.20;7.00;;;;;;;4.47;99.96;101424.96;104917;1271;99358;-85
2024/03/19 10:07:58;;;;;;;12.40;7.30;;;;;;;4.46;99.08;101423.10;105312;1271;99452;-86
2024/03/19 10:10:47;;;;;;;11.50;7.50;;;;;;;4.48;98.93;101424.39;105423;1271;99547;-84
2024/03/19 10:13:33;;;;;;;13.50;8.00;;;;;;;4.57;99.11;101423.98;105130;1270;104136;-82
2024/03/19 10:16:19;;;;;;;12.00;7.90;;;;;;;4.65;98.88;101426.78;105459;1274;99878;-83
2024/03/19 10:19:05;;;;;;;9.60;6.30;;;;;;;4.75;98.24;101425.60;105197;1274;99477;-85
2024/03/19 10:21:53;;;;;;;9.80;7.10;;;;;;;4.83;97.30;101422.80;105249;1273;99289;-83
2024/03/19 10:24:45;;;;;;;10.90;7.10;;;;;;;4.95;97.84;101417.88;105271;1270;99412;-86
2024/03/19 10:27:32;;;;;;;12.10;8.20;;;;;;;5.09;98.17;101414.52;105239;1271;104852;-84
2024/03/19 10:30:21;;;;;;;10.50;7.40;;;;;;;5.15;97.05;101413.30;105222;1271;100929;-81
2024/03/19 10:33:07;;;;;;;11.20;7.50;;;;;;;5.12;96.32;101415.65;105113;1271;99346;-80
2024/03/19 10:35:56;;;;;;;13.80;8.30;;;;;;;5.14;96.00;101414.98;105290;1276;99264;-80
2024/03/19 10:38:41;;;;;;;13.50;8.90;;;;;;;5.25;96.64;101413.70;105503;1270;99161;-82
2024/03/19 10:41:40;;;;;;;12.60;8.50;;;;;;;5.41;97.19;101412.57;105213;1271;103750;-81
2024/03/19 10:44:29;;;;;;;12.90;8.80;;;;;;;5.50;96.20;101412.34;105276;1273;99410;-80
2024/03/19 10:47:15;;;;;;;14.60;9.40;;;;;;;5.47;95.47;101415.23;105426;1271;99339;-81
2024/03/19 10:50:01;;;;;;;13.50;9.10;;;;;;;5.39;94.18;101415.97;105338;1271;99379;-85
2024/03/19 10:53:00;;;;;;;14.60;9.00;;;;;;;5.28;93.63;101413.38;105262;1270;97425;-76
2024/03/19 10:55:50;;;;;;;11.90;8.30;;;;;;;5.24;94.08;101414.80;105266;1271;103924;-77
2024/03/19 10:58:38;;;;;;;11.70;7.90;;;;;;;5.24;94.20;101412.99;105556;1270;99382;-85
2024/03/19 11:01:24;;;;;;;14.80;8.40;;;;;;;5.25;94.11;101418.26;105148;1273;100275;-83
2024/03/19 11:04:10;;;;;;;12.70;8.60;;;;;;;5.28;94.41;101418.58;105130;1270;99384;-83
2024/03/19 11:06:58;;;;;;;14.20;9.60;;;;;;;5.25;93.70;101417.75;105211;1271;99357;-84
2024/03/19 11:09:51;;;;;;;11.90;8.70;;;;;;;5.17;93.62;101417.68;105088;1272;105287;-84
2024/03/19 11:12:37;;;;;;;12.80;8.50;;;;;;;5.19;93.97;101415.58;105192;1274;100532;-82
2024/03/19 11:15:22;;;;;;;14.90;9.50;;;;;;;5.18;93.34;101413.53;105282;1274;99524;-79
2024/03/19 11:18:21;;;;;;;16.20;9.70;;;;;;;5.15;93.71;101412.77;105250;1270;99371;-84
2024/03/19 11:21:21;;;;;;;12.10;8.20;;;;;;;5.19;94.21;101413.68;105515;1271;99484;-82
2024/03/19 11:24:24;;;;;;;14.30;7.90;;;;;;;5.23;93.95;101413.84;105177;1270;102809;-82
2024/03/19 11:27:16;;;;;;;12.90;8.10;;;;;;;5.25;93.76;101415.79;105336;1273;99360;-80
2024/03/19 11:30:12;;;;;;;11.80;7.70;;;;;;;5.22;92.80;101417.69;105294;1271;99429;-81
2024/03/19 11:32:58;;;;;;;12.90;8.40;;;;;;;5.18;92.17;101413.73;105368;1273;99237;-80
2024/03/19 11:35:47;;;;;;;9.50;6.50;;;;;;;5.18;92.06;101408.40;105258;1276;100004;-81
2024/03/19 11:38:32;;;;;;;11.70;7.30;;;;;;;5.24;92.47;101406.54;105327;1274;104182;-80
2024/03/19 11:41:17;;;;;;;12.30;7.40;;;;;;;5.34;92.69;101404.34;105395;1271;100375;-81
2024/03/19 11:44:03;;;;;;;10.90;7.00;;;;;;;5.42;91.63;101405.63;105131;1270;101179;-82
2024/03/19 11:46:50;;;;;;;10.10;6.70;;;;;;;5.41;91.17;101405.47;105471;1274;99515;-81
2024/03/19 11:49:36;;;;;;;11.20;7.50;;;;;;;5.49;91.86;101403.40;105366;1284;98141;-80
2024/03/19 11:52:21;;;;;;;9.10;7.20;;;;;;;5.59;91.49;101399.83;105379;1273;104408;-79
2024/03/19 11:55:08;;;;;;;9.90;6.80;;;;;;;5.65;91.27;101404.60;105296;1273;100378;-78
2024/03/19 11:57:54;;;;;;;11.90;7.50;;;;;;;5.64;90.67;101406.28;104907;1270;100027;-84
2024/03/19 12:00:41;;;;;;;12.10;6.90;;;;;;;5.64;90.29;101410.89;105484;1271;99315;-87
2024/03/19 12:03:27;;;;;;;12.30;7.20;;;;;;;5.61;89.94;101409.04;105182;1276;99537;-80
2024/03/19 12:06:13;;;;;;;9.20;6.60;;;;;;;5.59;89.90;101411.00;105423;1274;102793;-85
2024/03/19 12:08:59;;;;;;;12.70;8.00;;;;;;;5.57;89.78;101410.33;104523;1277;100075;-86
2024/03/19 12:11:47;;;;;;;9.50;6.70;;;;;;;5.61;89.60;101410.88;104391;1277;99374;-76
2024/03/19 12:14:32;;;;;;;12.10;7.10;;;;;;;5.69;89.81;101408.86;104771;1274;99935;-77
2024/03/19 12:17:18;;;;;;;11.30;7.70;;;;;;;5.77;90.07;101407.06;104896;1270;99257;-85
2024/03/19 12:20:10;;;;;;;12.10;7.70;;;;;;;5.82;89.84;101405.02;105491;1269;104105;-83
2024/03/19 12:22:56;;;;;;;13.40;8.30;;;;;;;5.85;89.95;101402.13;105344;1274;100489;-84
2024/03/19 12:25:42;;;;;;;12.60;8.10;;;;;;;5.84;89.38;101404.91;105145;1271;99367;-86